Terminal Aerodrome Forecast
Issued by NWS Cleveland, OH

Home | Current Version | Previous Version | Text Only | Print | Product List | Glossary Off
Versions: 1 2 3 4 5 6 7 8 9 10 11 12 13 14 15 16 17 18 19 20 21 22 23 24 25 26 27 28 29

000
FTUS41 KCLE 251100
TAFCLE
TAF
KCLE 251122Z 2512/2618 23020G30KT P6SM OVC025
     FM251900 24012G24KT P6SM OVC035
     FM260300 24005KT P6SM SCT035
     FM260900 24005KT P6SM OVC035
     FM261200 VRB03KT P6SM OVC025=

USA.gov is the U.S. government's official web portal to all federal, state and local government web resources and services.